sensor_id;sensor_type;location;lat;lon;timestamp;temperature;humidity
4896;DHT22;2463;49.948;8.472;2023-05-07T00:01:26;17.40;99.90
4896;DHT22;2463;49.948;8.472;2023-05-07T00:03:52;17.30;99.90
4896;DHT22;2463;49.948;8.472;2023-05-07T00:06:19;17.20;99.90
4896;DHT22;2463;49.948;8.472;2023-05-07T00:08:46;17.20;99.90
4896;DHT22;2463;49.948;8.472;2023-05-07T00:11:13;17.20;99.90
4896;DHT22;2463;49.948;8.472;2023-05-07T00:13:39;17.20;99.90
4896;DHT22;2463;49.948;8.472;2023-05-07T00:16:06;17.10;99.90
4896;DHT22;2463;49.948;8.472;2023-05-07T00:18:33;17.10;99.90
4896;DHT22;2463;49.948;8.472;2023-05-07T00:21:00;17.00;99.90
4896;DHT22;2463;49.948;8.472;2023-05-07T00:23:26;16.90;99.90
4896;DHT22;2463;49.948;8.472;2023-05-07T00:25:53;16.90;99.90
4896;DHT22;2463;49.948;8.472;2023-05-07T00:28:26;16.90;99.90
4896;DHT22;2463;49.948;8.472;2023-05-07T00:30:53;16.80;99.90
4896;DHT22;2463;49.948;8.472;2023-05-07T00:33:19;16.70;99.90
4896;DHT22;2463;49.948;8.472;2023-05-07T00:35:47;16.60;99.90
4896;DHT22;2463;49.948;8.472;2023-05-07T00:38:14;16.60;99.90
4896;DHT22;2463;49.948;8.472;2023-05-07T00:40:41;16.60;99.90
4896;DHT22;2463;49.948;8.472;2023-05-07T00:43:07;16.60;99.90
4896;DHT22;2463;49.948;8.472;2023-05-07T00:45:35;16.60;99.90
4896;DHT22;2463;49.948;8.472;2023-05-07T00:48:02;16.50;99.90
4896;DHT22;2463;49.948;8.472;2023-05-07T00:50:30;16.50;99.90
4896;DHT22;2463;49.948;8.472;2023-05-07T00:52:57;16.40;99.90
4896;DHT22;2463;49.948;8.472;2023-05-07T00:55:24;16.40;99.90
4896;DHT22;2463;49.948;8.472;2023-05-07T00:57:51;16.40;99.90
4896;DHT22;2463;49.948;8.472;2023-05-07T01:00:18;16.40;99.90
4896;DHT22;2463;49.948;8.472;2023-05-07T01:02:46;16.40;99.90
4896;DHT22;2463;49.948;8.472;2023-05-07T01:05:16;16.30;99.90
4896;DHT22;2463;49.948;8.472;2023-05-07T01:07:43;16.30;99.90
4896;DHT22;2463;49.948;8.472;2023-05-07T01:10:11;16.30;99.90
4896;DHT22;2463;49.948;8.472;2023-05-07T01:12:40;16.30;99.90
4896;DHT22;2463;49.948;8.472;2023-05-07T01:15:08;16.20;99.90
4896;DHT22;2463;49.948;8.472;2023-05-07T01:17:40;16.20;99.90
4896;DHT22;2463;49.948;8.472;2023-05-07T01:20:08;16.20;99.90
4896;DHT22;2463;49.948;8.472;2023-05-07T01:22:38;16.20;99.90
4896;DHT22;2463;49.948;8.472;2023-05-07T01:25:06;16.20;99.90
4896;DHT22;2463;49.948;8.472;2023-05-07T01:27:34;16.10;99.90
4896;DHT22;2463;49.948;8.472;2023-05-07T01:30:03;16.10;99.90
4896;DHT22;2463;49.948;8.472;2023-05-07T01:32:43;16.10;99.90
4896;DHT22;2463;49.948;8.472;2023-05-07T01:35:12;16.00;99.90
4896;DHT22;2463;49.948;8.472;2023-05-07T01:37:40;16.00;99.90
4896;DHT22;2463;49.948;8.472;2023-05-07T01:40:08;16.00;99.90
4896;DHT22;2463;49.948;8.472;2023-05-07T01:42:35;16.00;99.90
4896;DHT22;2463;49.948;8.472;2023-05-07T01:45:02;16.00;99.90
4896;DHT22;2463;49.948;8.472;2023-05-07T01:47:29;16.00;99.90
4896;DHT22;2463;49.948;8.472;2023-05-07T01:49:57;16.00;99.90
4896;DHT22;2463;49.948;8.472;2023-05-07T01:52:24;15.90;99.90
4896;DHT22;2463;49.948;8.472;2023-05-07T01:54:51;16.00;99.90
4896;DHT22;2463;49.948;8.472;2023-05-07T01:57:18;16.00;99.90
4896;DHT22;2463;49.948;8.472;2023-05-07T01:59:44;16.00;99.90
4896;DHT22;2463;49.948;8.472;2023-05-07T02:02:11;16.00;99.90
4896;DHT22;2463;49.948;8.472;2023-05-07T02:04:38;16.00;99.90
4896;DHT22;2463;49.948;8.472;2023-05-07T02:07:05;16.00;99.90
4896;DHT22;2463;49.948;8.472;2023-05-07T02:09:31;16.10;99.90
4896;DHT22;2463;49.948;8.472;2023-05-07T02:11:58;16.00;99.90
4896;DHT22;2463;49.948;8.472;2023-05-07T02:14:25;16.10;99.90
4896;DHT22;2463;49.948;8.472;2023-05-07T02:16:52;16.20;99.90
4896;DHT22;2463;49.948;8.472;2023-05-07T02:19:19;16.20;99.90
4896;DHT22;2463;49.948;8.472;2023-05-07T02:21:47;16.20;99.90
4896;DHT22;2463;49.948;8.472;2023-05-07T02:24:14;16.30;99.90
4896;DHT22;2463;49.948;8.472;2023-05-07T02:26:41;16.30;99.90
4896;DHT22;2463;49.948;8.472;2023-05-07T02:29:08;16.30;99.90
4896;DHT22;2463;49.948;8.472;2023-05-07T02:31:34;16.30;99.90
4896;DHT22;2463;49.948;8.472;2023-05-07T02:34:01;16.40;99.90
4896;DHT22;2463;49.948;8.472;2023-05-07T02:36:28;16.40;99.90
4896;DHT22;2463;49.948;8.472;2023-05-07T02:38:55;16.40;99.90
4896;DHT22;2463;49.948;8.472;2023-05-07T02:41:21;16.50;99.90
4896;DHT22;2463;49.948;8.472;2023-05-07T02:43:48;16.50;99.90
4896;DHT22;2463;49.948;8.472;2023-05-07T02:46:15;16.50;99.90
4896;DHT22;2463;49.948;8.472;2023-05-07T02:48:42;16.50;99.90
4896;DHT22;2463;49.948;8.472;2023-05-07T02:51:09;16.50;99.90
4896;DHT22;2463;49.948;8.472;2023-05-07T02:53:36;16.50;99.90
4896;DHT22;2463;49.948;8.472;2023-05-07T02:56:03;16.50;99.90
4896;DHT22;2463;49.948;8.472;2023-05-07T02:58:30;16.60;99.90
4896;DHT22;2463;49.948;8.472;2023-05-07T03:00:56;16.60;99.90
4896;DHT22;2463;49.948;8.472;2023-05-07T03:03:23;16.60;99.90
4896;DHT22;2463;49.948;8.472;2023-05-07T03:05:50;16.60;99.90
4896;DHT22;2463;49.948;8.472;2023-05-07T03:08:17;16.60;99.90
4896;DHT22;2463;49.948;8.472;2023-05-07T03:10:43;16.60;99.90
4896;DHT22;2463;49.948;8.472;2023-05-07T03:13:10;16.70;99.90
4896;DHT22;2463;49.948;8.472;2023-05-07T03:15:37;16.70;99.90
4896;DHT22;2463;49.948;8.472;2023-05-07T03:18:04;16.70;99.90
4896;DHT22;2463;49.948;8.472;2023-05-07T03:20:30;16.70;99.90
4896;DHT22;2463;49.948;8.472;2023-05-07T03:22:57;16.70;99.90
4896;DHT22;2463;49.948;8.472;2023-05-07T03:25:24;16.70;99.90
4896;DHT22;2463;49.948;8.472;2023-05-07T03:27:51;16.70;99.90
4896;DHT22;2463;49.948;8.472;2023-05-07T03:30:18;16.70;99.90
4896;DHT22;2463;49.948;8.472;2023-05-07T03:32:45;16.70;99.90
4896;DHT22;2463;49.948;8.472;2023-05-07T03:35:12;16.70;99.90
4896;DHT22;2463;49.948;8.472;2023-05-07T03:37:39;16.70;99.90
4896;DHT22;2463;49.948;8.472;2023-05-07T03:40:06;16.70;99.90
4896;DHT22;2463;49.948;8.472;2023-05-07T03:42:34;16.70;99.90
4896;DHT22;2463;49.948;8.472;2023-05-07T03:45:00;16.80;99.90
4896;DHT22;2463;49.948;8.472;2023-05-07T03:47:27;16.80;99.90
4896;DHT22;2463;49.948;8.472;2023-05-07T03:49:54;16.80;99.90
4896;DHT22;2463;49.948;8.472;2023-05-07T03:52:21;16.70;99.90
4896;DHT22;2463;49.948;8.472;2023-05-07T03:54:52;16.70;99.90
4896;DHT22;2463;49.948;8.472;2023-05-07T03:57:20;16.70;99.90
4896;DHT22;2463;49.948;8.472;2023-05-07T03:59:47;16.70;99.90
4896;DHT22;2463;49.948;8.472;2023-05-07T04:02:13;16.70;99.90
4896;DHT22;2463;49.948;8.472;2023-05-07T04:04:40;16.70;99.90
4896;DHT22;2463;49.948;8.472;2023-05-07T04:07:07;16.60;99.90
4896;DHT22;2463;49.948;8.472;2023-05-07T04:09:33;16.70;99.90
4896;DHT22;2463;49.948;8.472;2023-05-07T04:12:00;16.70;99.90
4896;DHT22;2463;49.948;8.472;2023-05-07T04:14:27;16.70;99.90
4896;DHT22;2463;49.948;8.472;2023-05-07T04:16:54;16.80;99.90
4896;DHT22;2463;49.948;8.472;2023-05-07T04:19:21;16.80;99.90
4896;DHT22;2463;49.948;8.472;2023-05-07T04:21:50;16.80;99.90
4896;DHT22;2463;49.948;8.472;2023-05-07T04:24:16;16.80;99.90
4896;DHT22;2463;49.948;8.472;2023-05-07T04:26:43;16.80;99.90
4896;DHT22;2463;49.948;8.472;2023-05-07T04:29:10;16.80;99.90
4896;DHT22;2463;49.948;8.472;2023-05-07T04:31:36;16.80;99.90
4896;DHT22;2463;49.948;8.472;2023-05-07T04:34:03;16.80;99.90
4896;DHT22;2463;49.948;8.472;2023-05-07T04:36:30;16.90;99.90
4896;DHT22;2463;49.948;8.472;2023-05-07T04:38:57;16.90;99.90
4896;DHT22;2463;49.948;8.472;2023-05-07T04:41:23;16.80;99.90
4896;DHT22;2463;49.948;8.472;2023-05-07T04:43:50;17.70;99.90
4896;DHT22;2463;49.948;8.472;2023-05-07T04:46:17;16.90;99.90
4896;DHT22;2463;49.948;8.472;2023-05-07T04:48:44;16.90;99.90
4896;DHT22;2463;49.948;8.472;2023-05-07T04:51:11;16.90;99.90
4896;DHT22;2463;49.948;8.472;2023-05-07T04:53:38;16.90;99.90
4896;DHT22;2463;49.948;8.472;2023-05-07T04:56:04;16.90;99.90
4896;DHT22;2463;49.948;8.472;2023-05-07T04:58:31;16.90;99.90
4896;DHT22;2463;49.948;8.472;2023-05-07T05:00:59;16.90;99.90
4896;DHT22;2463;49.948;8.472;2023-05-07T05:03:27;17.00;99.90
4896;DHT22;2463;49.948;8.472;2023-05-07T05:05:53;17.00;99.90
4896;DHT22;2463;49.948;8.472;2023-05-07T05:08:20;17.00;99.90
4896;DHT22;2463;49.948;8.472;2023-05-07T05:10:47;17.00;99.90
4896;DHT22;2463;49.948;8.472;2023-05-07T05:13:16;17.10;99.90
4896;DHT22;2463;49.948;8.472;2023-05-07T05:15:43;17.10;99.90
4896;DHT22;2463;49.948;8.472;2023-05-07T05:18:10;17.20;99.90
4896;DHT22;2463;49.948;8.472;2023-05-07T05:20:36;17.20;99.90
4896;DHT22;2463;49.948;8.472;2023-05-07T05:23:03;17.30;99.90
4896;DHT22;2463;49.948;8.472;2023-05-07T05:25:30;17.40;99.90
4896;DHT22;2463;49.948;8.472;2023-05-07T05:27:57;17.40;99.90
4896;DHT22;2463;49.948;8.472;2023-05-07T05:30:23;17.50;99.90
4896;DHT22;2463;49.948;8.472;2023-05-07T05:32:50;17.50;99.90
4896;DHT22;2463;49.948;8.472;2023-05-07T05:35:17;17.60;99.90
4896;DHT22;2463;49.948;8.472;2023-05-07T05:37:43;17.70;99.90
4896;DHT22;2463;49.948;8.472;2023-05-07T05:40:10;17.80;99.90
4896;DHT22;2463;49.948;8.472;2023-05-07T05:42:37;17.80;99.90
4896;DHT22;2463;49.948;8.472;2023-05-07T05:45:04;17.90;99.90
4896;DHT22;2463;49.948;8.472;2023-05-07T05:47:31;18.00;99.90
4896;DHT22;2463;49.948;8.472;2023-05-07T05:49:58;18.00;99.90
4896;DHT22;2463;49.948;8.472;2023-05-07T05:52:25;18.10;99.90
4896;DHT22;2463;49.948;8.472;2023-05-07T05:54:51;18.20;99.90
4896;DHT22;2463;49.948;8.472;2023-05-07T05:57:18;18.30;99.90
4896;DHT22;2463;49.948;8.472;2023-05-07T05:59:45;18.40;99.90
4896;DHT22;2463;49.948;8.472;2023-05-07T06:02:13;18.50;99.90
4896;DHT22;2463;49.948;8.472;2023-05-07T06:04:40;18.60;99.90
4896;DHT22;2463;49.948;8.472;2023-05-07T06:07:07;18.70;99.90
4896;DHT22;2463;49.948;8.472;2023-05-07T06:09:34;18.90;99.90
4896;DHT22;2463;49.948;8.472;2023-05-07T06:12:00;19.00;99.90
4896;DHT22;2463;49.948;8.472;2023-05-07T06:14:27;19.00;99.90
4896;DHT22;2463;49.948;8.472;2023-05-07T06:16:54;19.10;99.90
4896;DHT22;2463;49.948;8.472;2023-05-07T06:19:20;19.10;99.90
4896;DHT22;2463;49.948;8.472;2023-05-07T06:21:50;19.10;99.90
4896;DHT22;2463;49.948;8.472;2023-05-07T06:24:17;19.00;99.90
4896;DHT22;2463;49.948;8.472;2023-05-07T06:26:43;19.00;99.90
4896;DHT22;2463;49.948;8.472;2023-05-07T06:29:10;19.10;99.90
4896;DHT22;2463;49.948;8.472;2023-05-07T06:31:37;19.10;99.90
4896;DHT22;2463;49.948;8.472;2023-05-07T06:34:03;19.00;99.90
4896;DHT22;2463;49.948;8.472;2023-05-07T06:36:30;19.10;99.90
4896;DHT22;2463;49.948;8.472;2023-05-07T06:38:57;19.10;99.90
4896;DHT22;2463;49.948;8.472;2023-05-07T06:41:23;19.20;99.90
4896;DHT22;2463;49.948;8.472;2023-05-07T06:43:50;19.30;99.90
4896;DHT22;2463;49.948;8.472;2023-05-07T06:46:17;19.30;99.90
4896;DHT22;2463;49.948;8.472;2023-05-07T06:48:44;19.30;99.90
4896;DHT22;2463;49.948;8.472;2023-05-07T06:51:10;19.40;99.90
4896;DHT22;2463;49.948;8.472;2023-05-07T06:53:37;19.40;99.90
4896;DHT22;2463;49.948;8.472;2023-05-07T06:56:04;19.40;99.90
4896;DHT22;2463;49.948;8.472;2023-05-07T06:58:30;19.40;99.90
4896;DHT22;2463;49.948;8.472;2023-05-07T07:00:57;19.50;99.90
4896;DHT22;2463;49.948;8.472;2023-05-07T07:03:24;19.50;99.90
4896;DHT22;2463;49.948;8.472;2023-05-07T07:05:52;19.60;99.90
4896;DHT22;2463;49.948;8.472;2023-05-07T07:08:19;19.60;99.90
4896;DHT22;2463;49.948;8.472;2023-05-07T07:10:48;19.60;99.90
4896;DHT22;2463;49.948;8.472;2023-05-07T07:13:14;19.60;99.90
4896;DHT22;2463;49.948;8.472;2023-05-07T07:15:41;19.60;99.90
4896;DHT22;2463;49.948;8.472;2023-05-07T07:18:08;19.70;99.90
4896;DHT22;2463;49.948;8.472;2023-05-07T07:20:34;19.70;99.90
4896;DHT22;2463;49.948;8.472;2023-05-07T07:23:01;19.80;99.90
4896;DHT22;2463;49.948;8.472;2023-05-07T07:25:28;19.90;99.90
4896;DHT22;2463;49.948;8.472;2023-05-07T07:27:54;19.90;99.90
4896;DHT22;2463;49.948;8.472;2023-05-07T07:30:21;20.00;99.90
4896;DHT22;2463;49.948;8.472;2023-05-07T07:32:48;20.00;99.90
4896;DHT22;2463;49.948;8.472;2023-05-07T07:35:14;20.10;99.90
4896;DHT22;2463;49.948;8.472;2023-05-07T07:37:41;20.20;99.90
4896;DHT22;2463;49.948;8.472;2023-05-07T07:40:08;20.20;99.90
4896;DHT22;2463;49.948;8.472;2023-05-07T07:42:36;20.30;99.90
4896;DHT22;2463;49.948;8.472;2023-05-07T07:45:03;20.20;99.90
4896;DHT22;2463;49.948;8.472;2023-05-07T07:47:29;20.10;99.90
4896;DHT22;2463;49.948;8.472;2023-05-07T07:49:56;20.20;99.90
4896;DHT22;2463;49.948;8.472;2023-05-07T07:52:23;20.20;99.90
4896;DHT22;2463;49.948;8.472;2023-05-07T07:54:50;20.20;99.90
4896;DHT22;2463;49.948;8.472;2023-05-07T07:57:16;20.30;99.90
4896;DHT22;2463;49.948;8.472;2023-05-07T07:59:43;20.40;99.90
4896;DHT22;2463;49.948;8.472;2023-05-07T08:02:10;20.40;99.90
4896;DHT22;2463;49.948;8.472;2023-05-07T08:04:36;20.40;99.90
4896;DHT22;2463;49.948;8.472;2023-05-07T08:07:04;20.40;99.90
4896;DHT22;2463;49.948;8.472;2023-05-07T08:09:31;20.40;99.90
4896;DHT22;2463;49.948;8.472;2023-05-07T08:11:57;20.40;99.90
4896;DHT22;2463;49.948;8.472;2023-05-07T08:14:24;20.50;99.90
4896;DHT22;2463;49.948;8.472;2023-05-07T08:16:51;20.50;99.90
4896;DHT22;2463;49.948;8.472;2023-05-07T08:19:17;20.00;99.90
4896;DHT22;2463;49.948;8.472;2023-05-07T08:21:44;20.60;99.90
4896;DHT22;2463;49.948;8.472;2023-05-07T08:24:11;20.70;99.90
4896;DHT22;2463;49.948;8.472;2023-05-07T08:26:38;20.80;99.90
4896;DHT22;2463;49.948;8.472;2023-05-07T08:29:06;20.90;99.90
4896;DHT22;2463;49.948;8.472;2023-05-07T08:31:32;21.10;99.90
4896;DHT22;2463;49.948;8.472;2023-05-07T08:33:59;21.20;99.90
4896;DHT22;2463;49.948;8.472;2023-05-07T08:36:26;21.30;99.90
4896;DHT22;2463;49.948;8.472;2023-05-07T08:38:53;21.40;99.90
4896;DHT22;2463;49.948;8.472;2023-05-07T08:41:20;21.50;99.90
4896;DHT22;2463;49.948;8.472;2023-05-07T08:43:49;21.60;99.90
4896;DHT22;2463;49.948;8.472;2023-05-07T08:46:18;21.80;99.90
4896;DHT22;2463;49.948;8.472;2023-05-07T08:48:49;22.00;99.90
4896;DHT22;2463;49.948;8.472;2023-05-07T08:51:18;22.30;99.90
4896;DHT22;2463;49.948;8.472;2023-05-07T08:53:46;22.50;99.90
4896;DHT22;2463;49.948;8.472;2023-05-07T08:56:15;22.60;99.90
4896;DHT22;2463;49.948;8.472;2023-05-07T08:58:43;22.80;99.90
4896;DHT22;2463;49.948;8.472;2023-05-07T09:01:13;22.90;99.90
4896;DHT22;2463;49.948;8.472;2023-05-07T09:03:40;23.10;99.90
4896;DHT22;2463;49.948;8.472;2023-05-07T09:06:08;23.20;99.90
4896;DHT22;2463;49.948;8.472;2023-05-07T09:08:35;23.20;99.90
4896;DHT22;2463;49.948;8.472;2023-05-07T09:11:02;23.20;99.90
4896;DHT22;2463;49.948;8.472;2023-05-07T09:13:29;23.20;99.90
4896;DHT22;2463;49.948;8.472;2023-05-07T09:15:56;23.40;99.90
4896;DHT22;2463;49.948;8.472;2023-05-07T09:18:26;23.50;99.90
4896;DHT22;2463;49.948;8.472;2023-05-07T09:20:52;23.70;99.90
4896;DHT22;2463;49.948;8.472;2023-05-07T09:23:20;24.10;99.90
4896;DHT22;2463;49.948;8.472;2023-05-07T09:25:47;24.10;99.90
4896;DHT22;2463;49.948;8.472;2023-05-07T09:28:13;24.10;99.90
4896;DHT22;2463;49.948;8.472;2023-05-07T09:30:40;24.10;99.90
4896;DHT22;2463;49.948;8.472;2023-05-07T09:33:07;24.10;99.90
4896;DHT22;2463;49.948;8.472;2023-05-07T09:35:34;24.40;99.90
4896;DHT22;2463;49.948;8.472;2023-05-07T09:38:01;24.80;99.90
4896;DHT22;2463;49.948;8.472;2023-05-07T09:40:30;25.10;99.90
4896;DHT22;2463;49.948;8.472;2023-05-07T09:43:09;25.40;99.90
4896;DHT22;2463;49.948;8.472;2023-05-07T09:45:36;25.70;99.90
4896;DHT22;2463;49.948;8.472;2023-05-07T09:48:05;26.00;99.90
4896;DHT22;2463;49.948;8.472;2023-05-07T09:50:36;26.30;99.90
4896;DHT22;2463;49.948;8.472;2023-05-07T09:53:04;26.70;99.90
4896;DHT22;2463;49.948;8.472;2023-05-07T09:55:31;26.80;99.90
4896;DHT22;2463;49.948;8.472;2023-05-07T09:57:58;27.50;99.90
4896;DHT22;2463;49.948;8.472;2023-05-07T10:00:26;27.60;99.90
4896;DHT22;2463;49.948;8.472;2023-05-07T10:02:57;27.60;99.90
4896;DHT22;2463;49.948;8.472;2023-05-07T10:05:24;27.70;99.90
4896;DHT22;2463;49.948;8.472;2023-05-07T10:07:53;27.90;99.90
4896;DHT22;2463;49.948;8.472;2023-05-07T10:10:21;28.10;99.90
4896;DHT22;2463;49.948;8.472;2023-05-07T10:12:48;28.20;99.90
4896;DHT22;2463;49.948;8.472;2023-05-07T10:15:16;28.30;99.90
4896;DHT22;2463;49.948;8.472;2023-05-07T10:17:44;28.60;99.90
4896;DHT22;2463;49.948;8.472;2023-05-07T10:20:11;28.70;99.40
4896;DHT22;2463;49.948;8.472;2023-05-07T10:22:43;28.60;99.60
4896;DHT22;2463;49.948;8.472;2023-05-07T10:25:31;28.80;99.90
4896;DHT22;2463;49.948;8.472;2023-05-07T10:28:06;29.10;99.60
4896;DHT22;2463;49.948;8.472;2023-05-07T10:31:07;29.30;99.30
4896;DHT22;2463;49.948;8.472;2023-05-07T10:33:35;29.60;99.50
4896;DHT22;2463;49.948;8.472;2023-05-07T10:36:03;30.00;98.20
4896;DHT22;2463;49.948;8.472;2023-05-07T10:38:31;30.20;97.50
4896;DHT22;2463;49.948;8.472;2023-05-07T10:40:58;30.40;97.80
4896;DHT22;2463;49.948;8.472;2023-05-07T10:43:24;30.60;97.10
4896;DHT22;2463;49.948;8.472;2023-05-07T10:46:17;30.50;96.20
4896;DHT22;2463;49.948;8.472;2023-05-07T10:51:33;31.00;95.20
4896;DHT22;2463;49.948;8.472;2023-05-07T10:56:40;31.00;95.10
4896;DHT22;2463;49.948;8.472;2023-05-07T11:01:58;30.40;92.70
4896;DHT22;2463;49.948;8.472;2023-05-07T11:04:25;30.20;94.60
4896;DHT22;2463;49.948;8.472;2023-05-07T11:15:06;31.60;93.30
4896;DHT22;2463;49.948;8.472;2023-05-07T11:17:34;31.90;92.80
4896;DHT22;2463;49.948;8.472;2023-05-07T11:20:03;32.20;91.90
4896;DHT22;2463;49.948;8.472;2023-05-07T11:25:02;32.40;87.00
4896;DHT22;2463;49.948;8.472;2023-05-07T11:27:29;32.40;90.60
4896;DHT22;2463;49.948;8.472;2023-05-07T11:29:56;32.40;90.10
4896;DHT22;2463;49.948;8.472;2023-05-07T11:32:27;32.50;88.40
4896;DHT22;2463;49.948;8.472;2023-05-07T11:34:57;32.50;86.90
4896;DHT22;2463;49.948;8.472;2023-05-07T11:37:25;32.30;88.10
4896;DHT22;2463;49.948;8.472;2023-05-07T11:40:08;32.20;88.00
4896;DHT22;2463;49.948;8.472;2023-05-07T11:42:41;32.20;84.50
4896;DHT22;2463;49.948;8.472;2023-05-07T11:45:10;32.00;84.70
4896;DHT22;2463;49.948;8.472;2023-05-07T11:47:37;31.70;83.50
4896;DHT22;2463;49.948;8.472;2023-05-07T11:50:08;31.40;86.70
4896;DHT22;2463;49.948;8.472;2023-05-07T11:52:37;30.80;83.80
4896;DHT22;2463;49.948;8.472;2023-05-07T11:55:07;30.50;85.40
4896;DHT22;2463;49.948;8.472;2023-05-07T11:57:34;30.20;88.50
4896;DHT22;2463;49.948;8.472;2023-05-07T12:00:02;30.00;87.70
4896;DHT22;2463;49.948;8.472;2023-05-07T12:02:31;30.10;88.10
4896;DHT22;2463;49.948;8.472;2023-05-07T12:05:00;30.30;88.10
4896;DHT22;2463;49.948;8.472;2023-05-07T12:07:27;30.30;86.70
4896;DHT22;2463;49.948;8.472;2023-05-07T12:09:54;30.00;86.50
4896;DHT22;2463;49.948;8.472;2023-05-07T12:12:20;29.70;87.00
4896;DHT22;2463;49.948;8.472;2023-05-07T12:14:48;29.50;84.80
4896;DHT22;2463;49.948;8.472;2023-05-07T12:17:15;29.10;86.70
4896;DHT22;2463;49.948;8.472;2023-05-07T12:19:43;28.90;89.30
4896;DHT22;2463;49.948;8.472;2023-05-07T12:22:11;28.80;90.00
4896;DHT22;2463;49.948;8.472;2023-05-07T12:24:44;29.10;90.30
4896;DHT22;2463;49.948;8.472;2023-05-07T12:27:12;29.40;90.00
4896;DHT22;2463;49.948;8.472;2023-05-07T12:29:39;29.20;87.70
4896;DHT22;2463;49.948;8.472;2023-05-07T12:32:16;29.30;90.00
4896;DHT22;2463;49.948;8.472;2023-05-07T12:34:50;29.70;89.50
4896;DHT22;2463;49.948;8.472;2023-05-07T12:37:23;29.60;86.00
4896;DHT22;2463;49.948;8.472;2023-05-07T12:40:08;29.20;83.90
4896;DHT22;2463;49.948;8.472;2023-05-07T12:42:36;28.60;87.30
4896;DHT22;2463;49.948;8.472;2023-05-07T12:45:13;28.40;90.00
4896;DHT22;2463;49.948;8.472;2023-05-07T12:47:46;28.70;90.60
4896;DHT22;2463;49.948;8.472;2023-05-07T12:50:14;29.00;89.50
4896;DHT22;2463;49.948;8.472;2023-05-07T12:52:43;29.20;89.70
4896;DHT22;2463;49.948;8.472;2023-05-07T12:55:13;29.40;88.70
4896;DHT22;2463;49.948;8.472;2023-05-07T12:57:43;29.50;87.60
4896;DHT22;2463;49.948;8.472;2023-05-07T13:00:10;29.40;86.40
4896;DHT22;2463;49.948;8.472;2023-05-07T13:02:38;29.20;86.50
4896;DHT22;2463;49.948;8.472;2023-05-07T13:05:06;29.20;89.70
4896;DHT22;2463;49.948;8.472;2023-05-07T13:07:33;29.30;88.60
4896;DHT22;2463;49.948;8.472;2023-05-07T13:10:01;29.50;89.40
4896;DHT22;2463;49.948;8.472;2023-05-07T13:12:27;29.70;90.20
4896;DHT22;2463;49.948;8.472;2023-05-07T13:14:54;30.00;87.90
4896;DHT22;2463;49.948;8.472;2023-05-07T13:17:21;30.20;86.70
4896;DHT22;2463;49.948;8.472;2023-05-07T13:19:48;30.60;87.40
4896;DHT22;2463;49.948;8.472;2023-05-07T13:22:14;30.80;87.90
4896;DHT22;2463;49.948;8.472;2023-05-07T13:24:41;30.80;85.30
4896;DHT22;2463;49.948;8.472;2023-05-07T13:27:10;30.90;86.10
4896;DHT22;2463;49.948;8.472;2023-05-07T13:29:36;31.10;86.30
4896;DHT22;2463;49.948;8.472;2023-05-07T13:32:03;31.30;85.30
4896;DHT22;2463;49.948;8.472;2023-05-07T13:34:30;31.60;83.40
4896;DHT22;2463;49.948;8.472;2023-05-07T13:36:57;31.60;81.70
4896;DHT22;2463;49.948;8.472;2023-05-07T13:39:23;31.70;82.90
4896;DHT22;2463;49.948;8.472;2023-05-07T13:41:50;31.80;82.20
4896;DHT22;2463;49.948;8.472;2023-05-07T13:44:17;31.70;78.20
4896;DHT22;2463;49.948;8.472;2023-05-07T13:46:43;30.80;80.30
4896;DHT22;2463;49.948;8.472;2023-05-07T13:49:10;30.70;82.70
4896;DHT22;2463;49.948;8.472;2023-05-07T13:51:38;30.60;82.70
4896;DHT22;2463;49.948;8.472;2023-05-07T13:54:05;30.60;81.00
4896;DHT22;2463;49.948;8.472;2023-05-07T13:56:32;30.60;81.50
4896;DHT22;2463;49.948;8.472;2023-05-07T13:58:59;30.40;80.70
4896;DHT22;2463;49.948;8.472;2023-05-07T14:01:26;30.50;79.70
4896;DHT22;2463;49.948;8.472;2023-05-07T14:03:53;30.70;79.90
4896;DHT22;2463;49.948;8.472;2023-05-07T14:06:20;30.70;79.90
4896;DHT22;2463;49.948;8.472;2023-05-07T14:08:48;30.40;74.70
4896;DHT22;2463;49.948;8.472;2023-05-07T14:11:14;30.00;79.20
4896;DHT22;2463;49.948;8.472;2023-05-07T14:13:41;29.80;77.30
4896;DHT22;2463;49.948;8.472;2023-05-07T14:16:08;29.50;80.50
4896;DHT22;2463;49.948;8.472;2023-05-07T14:18:34;29.50;83.00
4896;DHT22;2463;49.948;8.472;2023-05-07T14:21:04;29.50;80.70
4896;DHT22;2463;49.948;8.472;2023-05-07T14:23:32;29.20;80.50
4896;DHT22;2463;49.948;8.472;2023-05-07T14:25:59;29.00;81.80
4896;DHT22;2463;49.948;8.472;2023-05-07T14:28:26;28.60;81.30
4896;DHT22;2463;49.948;8.472;2023-05-07T14:30:52;28.50;82.50
4896;DHT22;2463;49.948;8.472;2023-05-07T14:33:19;28.50;82.30
4896;DHT22;2463;49.948;8.472;2023-05-07T14:35:46;28.50;84.40
4896;DHT22;2463;49.948;8.472;2023-05-07T14:38:15;28.30;82.20
4896;DHT22;2463;49.948;8.472;2023-05-07T14:40:42;28.20;84.10
4896;DHT22;2463;49.948;8.472;2023-05-07T14:43:09;28.20;87.60
4896;DHT22;2463;49.948;8.472;2023-05-07T14:45:35;28.50;86.50
4896;DHT22;2463;49.948;8.472;2023-05-07T14:48:02;28.20;85.80
4896;DHT22;2463;49.948;8.472;2023-05-07T14:50:29;28.10;86.80
4896;DHT22;2463;49.948;8.472;2023-05-07T14:52:56;28.10;86.60
4896;DHT22;2463;49.948;8.472;2023-05-07T14:55:23;28.10;87.60
4896;DHT22;2463;49.948;8.472;2023-05-07T14:57:49;28.00;85.60
4896;DHT22;2463;49.948;8.472;2023-05-07T15:00:16;27.90;87.60
4896;DHT22;2463;49.948;8.472;2023-05-07T15:02:43;27.80;87.50
4896;DHT22;2463;49.948;8.472;2023-05-07T15:05:10;27.80;87.80
4896;DHT22;2463;49.948;8.472;2023-05-07T15:07:37;27.70;87.80
4896;DHT22;2463;49.948;8.472;2023-05-07T15:10:04;27.60;87.00
4896;DHT22;2463;49.948;8.472;2023-05-07T15:12:30;27.50;87.90
4896;DHT22;2463;49.948;8.472;2023-05-07T15:14:57;27.40;89.10
4896;DHT22;2463;49.948;8.472;2023-05-07T15:17:24;27.30;88.60
4896;DHT22;2463;49.948;8.472;2023-05-07T15:19:51;27.20;89.10
4896;DHT22;2463;49.948;8.472;2023-05-07T15:22:20;26.90;84.50
4896;DHT22;2463;49.948;8.472;2023-05-07T15:24:47;26.60;86.10
4896;DHT22;2463;49.948;8.472;2023-05-07T15:27:14;26.40;87.80
4896;DHT22;2463;49.948;8.472;2023-05-07T15:29:41;26.40;90.10
4896;DHT22;2463;49.948;8.472;2023-05-07T15:32:09;26.30;90.60
4896;DHT22;2463;49.948;8.472;2023-05-07T15:34:36;26.20;90.70
4896;DHT22;2463;49.948;8.472;2023-05-07T15:37:03;26.10;91.00
4896;DHT22;2463;49.948;8.472;2023-05-07T15:39:30;26.00;90.90
4896;DHT22;2463;49.948;8.472;2023-05-07T15:41:57;25.90;91.60
4896;DHT22;2463;49.948;8.472;2023-05-07T15:44:24;25.80;91.70
4896;DHT22;2463;49.948;8.472;2023-05-07T15:46:55;25.70;91.60
4896;DHT22;2463;49.948;8.472;2023-05-07T15:49:21;25.60;93.00
4896;DHT22;2463;49.948;8.472;2023-05-07T15:51:48;25.60;92.80
4896;DHT22;2463;49.948;8.472;2023-05-07T15:54:17;25.50;92.30
4896;DHT22;2463;49.948;8.472;2023-05-07T15:56:46;25.50;93.10
4896;DHT22;2463;49.948;8.472;2023-05-07T15:59:13;25.40;93.10
4896;DHT22;2463;49.948;8.472;2023-05-07T16:01:41;25.30;93.30
4896;DHT22;2463;49.948;8.472;2023-05-07T16:04:09;25.20;93.30
4896;DHT22;2463;49.948;8.472;2023-05-07T16:06:36;25.20;93.90
4896;DHT22;2463;49.948;8.472;2023-05-07T16:09:03;25.00;93.20
4896;DHT22;2463;49.948;8.472;2023-05-07T16:11:29;24.70;94.00
4896;DHT22;2463;49.948;8.472;2023-05-07T16:13:56;23.90;96.90
4896;DHT22;2463;49.948;8.472;2023-05-07T16:16:23;22.80;99.90
4896;DHT22;2463;49.948;8.472;2023-05-07T16:18:52;22.10;99.90
4896;DHT22;2463;49.948;8.472;2023-05-07T16:21:18;21.70;99.90
4896;DHT22;2463;49.948;8.472;2023-05-07T16:23:45;21.20;99.90